Hlavní strana
METAR-TAF:

METAR-TAF

Letiště :

Čita, Rusko

zeměpisná šířka: 52-05N, zeměpisná délka: 113-29E, výška: 685 m

Aktuální stav počasí

Zpráva byla vytvořena před 39 minutami, v 18:30 UTC
Západojihozápadní vítr 10 kt
Teplota 17°C
Vlhkost vzduchu 77%
Tlak 1015 hPa
Viditelnost 10 km a více

METAR: UIAA 151830Z AUTO 25005MPS 9999 NCD 17/13 Q1015 RMK QFE703/0937

Čas: 04:09 (19:09 UTC)

Předpověď počasí

Zpráva byla vytvořena před 2 hodinami a 9 minutami, v 17:00 UTC
Předpověď platná od 15 v 18 UTC do 16 v 18 UTC
Západoseverozápadní vítr 12 kt s nárazy do 27 kt
Viditelnost: 3100 m
Oblačno až skoro zataženo ve výšce 1400 ft, Cumulonimbus.
slabé dešťové přeháňky
Dočasný
od 15 v 18 UTC do 15 v 24 UTC
Západojihozápadní vítr 6 kt s nárazy do 17 kt

TAF: UIAA 151700Z 1518/1618 30006G14MPS 3100 -SHRA BKN014CB TEMPO 1518/1524 24003G09MPS

Stav a předpovědi počasí z více než 4 000 letišť (zprávy METAR a TAF).

Červené a žluté tečky na mapě představují dostupné meteorologické stanice.

Když kurzor umístíte na tečku, zobrazí se název stanice.

Pak kliknutím zobrazíte stav a předpověď počasí.

Chcete-li změnit mapu, kliknutím na zelené tlačítko se znaménkem +mapu přiblížíte, kliknutím na zelené tlačítko se znaménkem – mapu oddálíte a kliknutím na zelené šipky přejdete na sousední mapy.


METAR-TAF: